Terminal Aerodrome Forecast
Issued by NWS Melbourne, FL

Current Version | Previous Version | Text Only | Print | Product List | Glossary On
Versions: 1 2 3 4 5 6 7 8 9 10 11 12
000
FTUS42 KMLB 012300 RRA
TAFMLB
TAF
KMLB 012342Z 0200/0224 12007KT P6SM FEW030 SCT250
     FM020400 VRB03KT P6SM FEW030
     FM021400 08008KT P6SM SCT025=

USA.gov is the U.S. government's official web portal to all federal, state and local government web resources and services.